KHSV

Huntsville International-Carl T Jones Field Airport

Huntsville, Alabama, USA
METAR KHSV 201153Z 11006KT 10SM OVC045 07/M02 A3023 RMK AO2 SLP237 T00671022 10072 20061 57001
Observed Flight Rules
Jan-20 @ 11:53 UTC (an hour ago) Visual Flight Rules
Wind Visibility Clouds
110° at 6 knots 10 miles
  • Overcast at 4,500' AGL
Temperatures Readings
Current 7°C / 45°F
Dewpoint -2°C / 28°F
Humidity 53%
Altimeter 30.23" Hg
Pressure 1023.7 hPa
Elevation 191
METAR KHSV 201153Z 11006KT 10SM OVC045 07/M02 A3023 RMK AO2 SLP237 T00671022 10072 20061 57001
Observed Flight Rules
Jan-20 @ 11:53 UTC
(an hour ago)
VFR
Wind Visibility
110° at 6 knots 10 miles
Clouds
  • Overcast at 4,500' AGL
Temperature Dewpoint
7°C / 45°F -2°C / 28°F
Humidity Altimeter Pressure
53% 30.23" Hg 1023.7 hPa